Terminal Aerodrome Forecast
Issued by NWS Cleveland, OH

Home | Current Version | Previous Version | Text Only | Print | Product List | Glossary On
Versions: 1 2 3 4 5 6 7 8 9 10 11 12
177
FTUS41 KCLE 262320
TAFTOL
TAF
KTOL 262320Z 2700/2724 19012KT P6SM SCT070 BKN250
     FM271300 19015G25KT 6SM -SHRA VCTS SCT025CB OVC040
      TEMPO 2713/2717 5SM -SHRA OVC025
     FM271700 22018G28KT P6SM OVC025=

USA.gov is the U.S. government's official web portal to all federal, state and local government web resources and services.